createdAt,value
2022-11-24T00:00:29.587Z,52.50
2022-11-24T00:05:52.548Z,33.40
2022-11-24T00:10:55.479Z,31.30
2022-11-24T00:16:26.237Z,18.10
2022-11-24T00:21:30.903Z,53.40
2022-11-24T00:26:37.607Z,35.50
2022-11-24T00:31:42.569Z,39.10
2022-11-24T00:36:45.542Z,36.60
2022-11-24T00:41:48.521Z,39.40
2022-11-24T00:46:51.631Z,45.40
2022-11-24T00:51:54.899Z,31.00
2022-11-24T00:56:57.832Z,39.10
2022-11-24T01:02:00.889Z,31.30
2022-11-24T01:12:07.034Z,30.40
2022-11-24T01:17:10.042Z,41.00
2022-11-24T01:22:13.826Z,33.40
2022-11-24T01:27:16.811Z,37.40
2022-11-24T01:32:19.812Z,39.80
2022-11-24T01:37:22.770Z,49.50
2022-11-24T01:42:25.883Z,29.50
2022-11-24T01:47:40.974Z,28.40
2022-11-24T01:52:49.959Z,29.90
2022-11-24T01:58:25.556Z,29.10
2022-11-24T02:03:34.619Z,49.00
2022-11-24T02:08:49.606Z,25.30
2022-11-24T02:13:54.491Z,32.70
2022-11-24T02:18:57.805Z,37.90
2022-11-24T02:24:08.924Z,32.80
2022-11-24T02:29:13.334Z,61.00
2022-11-24T02:34:16.310Z,41.80
2022-11-24T02:39:19.471Z,40.10
2022-11-24T02:44:25.761Z,47.50
2022-11-24T02:49:28.739Z,39.80
2022-11-24T02:54:32.390Z,38.80
2022-11-24T02:59:35.853Z,33.50
2022-11-24T03:04:38.776Z,52.80
2022-11-24T03:09:41.800Z,71.80
2022-11-24T03:14:44.883Z,41.50
2022-11-24T03:19:47.903Z,55.60
2022-11-24T03:24:50.938Z,33.90
2022-11-24T03:29:53.995Z,30.50
2022-11-24T03:34:56.981Z,54.60
2022-11-24T03:40:00.010Z,66.80
2022-11-24T03:45:29.802Z,41.70
2022-11-24T03:50:26.483Z,46.70
2022-11-24T03:55:29.493Z,42.10
2022-11-24T04:00:32.622Z,56.50
2022-11-24T04:05:36.650Z,45.60
2022-11-24T04:10:40.387Z,53.60
2022-11-24T04:15:44.234Z,55.30
2022-11-24T04:20:52.395Z,50.40
2022-11-24T04:25:55.369Z,63.90
2022-11-24T04:31:06.200Z,41.70
2022-11-24T04:36:09.344Z,40.00
2022-11-24T04:41:12.373Z,24.60
2022-11-24T04:46:15.330Z,37.20
2022-11-24T04:51:18.467Z,43.10
2022-11-24T04:56:21.432Z,31.00
2022-11-24T05:01:24.486Z,33.20
2022-11-24T05:06:27.496Z,29.70
2022-11-24T05:11:30.556Z,42.50
2022-11-24T05:16:33.573Z,29.00
2022-11-24T05:26:39.999Z,34.70
2022-11-24T05:31:42.920Z,26.70
2022-11-24T05:36:56.441Z,43.00
2022-11-24T05:41:59.478Z,30.20
2022-11-24T05:47:02.435Z,31.50
2022-11-24T05:52:05.416Z,31.20
2022-11-24T05:57:08.260Z,25.80
2022-11-24T06:02:11.404Z,28.80
2022-11-24T06:12:17.509Z,45.00
2022-11-24T06:17:20.386Z,31.00
2022-11-24T06:22:23.229Z,29.50
2022-11-24T06:27:26.403Z,37.90
2022-11-24T06:37:32.319Z,42.20
2022-11-24T06:42:36.541Z,39.00
2022-11-24T06:47:39.487Z,31.30
2022-11-24T06:52:42.452Z,35.90
2022-11-24T06:57:45.305Z,28.40
2022-11-24T07:02:48.219Z,42.20
2022-11-24T07:07:51.365Z,36.70
2022-11-24T07:12:54.275Z,32.10
2022-11-24T07:17:57.171Z,30.60
2022-11-24T07:23:00.044Z,30.40
2022-11-24T07:28:03.219Z,45.30
2022-11-24T07:33:06.087Z,37.00
2022-11-24T07:38:08.955Z,45.70
2022-11-24T07:43:18.603Z,48.80
2022-11-24T07:48:24.947Z,28.00
2022-11-24T07:53:28.951Z,40.20
2022-11-24T07:58:36.171Z,36.50
2022-11-24T08:03:39.599Z,38.80
2022-11-24T08:08:42.665Z,30.90
2022-11-24T08:13:45.757Z,47.60
2022-11-24T08:18:56.245Z,36.90
2022-11-24T08:23:59.305Z,39.00
2022-11-24T08:29:02.364Z,34.30
2022-11-24T08:34:06.459Z,41.70
2022-11-24T08:39:12.161Z,40.30
2022-11-24T08:44:18.354Z,35.90
2022-11-24T08:49:22.337Z,39.60
2022-11-24T08:54:25.961Z,42.30
2022-11-24T08:59:29.814Z,43.10
2022-11-24T09:04:34.535Z,41.30
2022-11-24T09:09:39.859Z,44.60
2022-11-24T09:14:44.872Z,36.60
2022-11-24T09:25:09.847Z,41.20
2022-11-24T09:30:14.069Z,41.10
2022-11-24T09:35:17.175Z,40.30
2022-11-24T09:40:22.364Z,37.40
2022-11-24T09:46:04.877Z,41.90
2022-11-24T09:51:13.851Z,39.60
2022-11-24T09:56:22.695Z,45.90
2022-11-24T10:01:52.870Z,44.30
2022-11-24T10:07:22.604Z,38.40
2022-11-24T10:12:44.240Z,38.50
2022-11-24T10:18:17.270Z,38.10
2022-11-24T10:24:02.729Z,31.70
2022-11-24T10:29:32.795Z,41.80
2022-11-24T10:34:43.051Z,37.20
2022-11-24T10:40:01.084Z,51.40
2022-11-24T10:45:14.136Z,52.80
2022-11-24T10:50:31.606Z,58.80
2022-11-24T10:55:54.995Z,44.10
2022-11-24T11:01:01.731Z,42.60
2022-11-24T11:06:30.809Z,48.80
2022-11-24T11:11:35.835Z,59.90
2022-11-24T11:16:38.850Z,80.20
2022-11-24T11:21:42.055Z,56.60
2022-11-24T11:26:45.302Z,64.90
2022-11-24T11:37:31.114Z,51.70
2022-11-24T11:48:15.263Z,55.00
2022-11-24T11:53:37.098Z,40.10
2022-11-24T11:59:06.368Z,45.00
2022-11-24T12:04:40.514Z,48.50
2022-11-24T12:10:04.562Z,42.10
2022-11-24T12:15:26.402Z,44.10
2022-11-24T12:20:38.094Z,52.20
2022-11-24T12:25:59.348Z,35.60
2022-11-24T12:31:14.378Z,46.10
2022-11-24T12:36:36.834Z,51.40
2022-11-24T12:42:21.004Z,50.10
2022-11-24T12:47:43.832Z,49.50
2022-11-24T12:53:13.910Z,48.10
2022-11-24T12:58:46.135Z,57.40
2022-11-24T13:04:11.211Z,43.40
2022-11-24T13:09:14.649Z,56.90
2022-11-24T13:14:32.840Z,56.00
2022-11-24T13:19:37.455Z,62.30
2022-11-24T13:24:42.308Z,40.80
2022-11-24T13:29:50.722Z,61.90
2022-11-24T13:34:55.124Z,59.60
2022-11-24T13:39:59.297Z,51.30
2022-11-24T13:45:23.632Z,45.80
2022-11-24T13:50:49.560Z,43.20
2022-11-24T13:56:00.786Z,54.20
2022-11-24T14:01:03.621Z,63.80
2022-11-24T14:06:06.647Z,57.30
2022-11-24T14:11:17.325Z,44.70
2022-11-24T14:16:22.463Z,61.90
2022-11-24T14:21:25.393Z,46.90
2022-11-24T14:26:35.526Z,49.20
2022-11-24T14:31:38.501Z,49.50
2022-11-24T14:36:42.602Z,54.00
2022-11-24T14:42:03.975Z,51.80
2022-11-24T14:47:31.185Z,86.20
2022-11-24T14:52:35.519Z,69.10
2022-11-24T14:57:40.419Z,63.90
2022-11-24T15:02:53.503Z,51.50
2022-11-24T15:08:02.849Z,48.90
2022-11-24T15:13:16.400Z,69.40
2022-11-24T15:19:03.385Z,53.50
2022-11-24T15:24:18.302Z,75.60
2022-11-24T15:29:21.165Z,65.10
2022-11-24T15:34:23.968Z,57.10
2022-11-24T15:39:26.815Z,53.80
2022-11-24T15:44:30.859Z,57.50
2022-11-24T15:49:33.808Z,82.50
2022-11-24T15:54:37.321Z,105.60
2022-11-24T15:59:40.221Z,88.10
2022-11-24T16:04:43.123Z,49.70
2022-11-24T16:09:46.031Z,54.50
2022-11-24T16:14:48.958Z,75.20
2022-11-24T16:20:00.263Z,68.80
2022-11-24T16:25:07.803Z,75.00
2022-11-24T16:30:12.637Z,67.00
2022-11-24T16:35:16.157Z,51.40
2022-11-24T16:40:19.112Z,109.20
2022-11-24T16:45:22.218Z,79.60
2022-11-24T16:55:28.024Z,73.20
2022-11-24T17:00:31.132Z,67.70
2022-11-24T17:05:33.982Z,64.70
2022-11-24T17:10:40.015Z,91.60
2022-11-24T17:15:48.440Z,83.30
2022-11-24T17:20:57.856Z,104.50
2022-11-24T17:26:27.949Z,100.60
2022-11-24T17:31:35.802Z,138.90
2022-11-24T17:36:44.902Z,116.10
2022-11-24T17:41:47.806Z,92.10
2022-11-24T17:46:51.118Z,99.60
2022-11-24T17:51:53.972Z,57.90
2022-11-24T17:56:56.822Z,72.90
2022-11-24T18:01:59.853Z,84.90
2022-11-24T18:07:03.040Z,57.00
2022-11-24T18:12:06.406Z,115.10
2022-11-24T18:17:10.343Z,64.40
2022-11-24T18:22:13.259Z,78.70
2022-11-24T18:32:20.006Z,181.00
2022-11-24T18:37:23.015Z,119.60
2022-11-24T18:42:28.370Z,239.30
2022-11-24T18:47:31.480Z,159.20
2022-11-24T18:52:34.381Z,114.00
2022-11-24T18:57:37.197Z,101.30
2022-11-24T19:02:40.127Z,168.80
2022-11-24T19:07:43.196Z,99.60
2022-11-24T19:12:46.162Z,104.20
2022-11-24T19:17:49.101Z,84.60
2022-11-24T19:22:52.005Z,182.80
2022-11-24T19:27:54.936Z,171.90
2022-11-24T19:32:57.900Z,158.80
2022-11-24T19:38:00.766Z,145.70
2022-11-24T19:43:03.821Z,101.30
2022-11-24T19:48:06.932Z,118.80
2022-11-24T19:53:09.830Z,82.10
2022-11-24T19:58:12.740Z,144.10
2022-11-24T20:03:15.738Z,95.40
2022-11-24T20:13:21.647Z,71.00
2022-11-24T20:18:25.571Z,93.80
2022-11-24T20:23:28.576Z,86.30
2022-11-24T20:28:32.092Z,84.20
2022-11-24T20:33:35.993Z,74.20
2022-11-24T20:38:39.986Z,111.70
2022-11-24T20:43:44.381Z,115.00
2022-11-24T20:48:47.901Z,86.50
2022-11-24T20:53:53.368Z,143.60
2022-11-24T20:58:56.787Z,106.60
2022-11-24T21:03:59.887Z,67.80
2022-11-24T21:09:04.191Z,78.50
2022-11-24T21:14:08.248Z,145.70
2022-11-24T21:19:18.843Z,298.60
2022-11-24T21:24:21.859Z,120.20
2022-11-24T21:29:25.776Z,75.60
2022-11-24T21:34:29.080Z,66.80
2022-11-24T21:39:32.132Z,82.50
2022-11-24T21:49:38.710Z,71.90
2022-11-24T21:54:41.611Z,47.80
2022-11-24T21:59:44.515Z,49.80
2022-11-24T22:04:47.417Z,38.00
2022-11-24T22:09:50.525Z,79.80
2022-11-24T22:14:53.431Z,41.10
2022-11-24T22:19:56.329Z,85.30
2022-11-24T22:24:59.172Z,54.80
2022-11-24T22:30:02.858Z,44.00
2022-11-24T22:35:06.737Z,55.10
2022-11-24T22:40:09.790Z,79.20
2022-11-24T22:45:12.688Z,63.60
2022-11-24T22:50:15.599Z,83.60
2022-11-24T22:55:18.511Z,57.80
2022-11-24T23:00:21.399Z,50.40
2022-11-24T23:05:24.400Z,72.40
2022-11-24T23:10:27.509Z,48.80
2022-11-24T23:15:30.820Z,106.70
2022-11-24T23:25:37.650Z,95.10
2022-11-24T23:30:40.450Z,71.00
2022-11-24T23:35:43.352Z,82.40
2022-11-24T23:40:46.562Z,71.60
2022-11-24T23:50:52.399Z,68.50
2022-11-24T23:55:55.536Z,143.70
